Princeton, Idaho
Current Conditions -  °F | °C
As of 12:53 AM on Friday 24 Oct 2014 (Local Time) from KPUW Reporting Station
Overcast Overcast  
Wind Chill: 43°   Ceiling: 9000
Heat Index: 47°   Visibility: 10mi
Dew Point: 39°   Wind: 9mph
Humidity: 74%   Direction: 240°WSW
Pressure: 30.06"   Gusts: NA
Location:  46.91°N, 116.83°W
Report Text: KPUW 240753Z AUTO 24008KT 10SM OVC090 08/04 A3006 RMK AO2 SLP182 T00830039 401500083
Loading
Personal Weather Stations






























Interactive Weather Map
Tropical Storm Tracking
New forecast layout! Learn more

10-Day Weather Forecast

Advertisements
Track Severe Weather on mobile